sensor_id;sensor_type;location;lat;lon;timestamp;temperature;humidity
53776;DHT22;44276;49.534;6.378;2022-10-16T00:01:43;13.80;99.90
53776;DHT22;44276;49.534;6.378;2022-10-16T00:04:11;13.80;99.90
53776;DHT22;44276;49.534;6.378;2022-10-16T00:06:40;13.80;99.90
53776;DHT22;44276;49.534;6.378;2022-10-16T00:09:10;13.80;99.90
53776;DHT22;44276;49.534;6.378;2022-10-16T00:11:39;13.80;99.90
53776;DHT22;44276;49.534;6.378;2022-10-16T00:14:09;13.80;99.90
53776;DHT22;44276;49.534;6.378;2022-10-16T00:16:40;13.90;99.90
53776;DHT22;44276;49.534;6.378;2022-10-16T00:19:09;13.90;99.90
53776;DHT22;44276;49.534;6.378;2022-10-16T00:21:38;13.90;99.90
53776;DHT22;44276;49.534;6.378;2022-10-16T00:24:08;13.90;99.90
53776;DHT22;44276;49.534;6.378;2022-10-16T00:26:38;13.90;99.90
53776;DHT22;44276;49.534;6.378;2022-10-16T00:29:08;13.90;99.90
53776;DHT22;44276;49.534;6.378;2022-10-16T00:31:36;13.90;99.90
53776;DHT22;44276;49.534;6.378;2022-10-16T00:34:04;13.90;99.90
53776;DHT22;44276;49.534;6.378;2022-10-16T00:36:33;13.90;99.90
53776;DHT22;44276;49.534;6.378;2022-10-16T00:39:01;14.00;99.90
53776;DHT22;44276;49.534;6.378;2022-10-16T00:41:31;14.00;99.90
53776;DHT22;44276;49.534;6.378;2022-10-16T00:44:01;14.10;99.90
53776;DHT22;44276;49.534;6.378;2022-10-16T00:46:35;14.10;99.90
53776;DHT22;44276;49.534;6.378;2022-10-16T00:49:10;14.10;99.90
53776;DHT22;44276;49.534;6.378;2022-10-16T00:51:42;14.00;99.90
53776;DHT22;44276;49.534;6.378;2022-10-16T00:54:16;14.10;99.90
53776;DHT22;44276;49.534;6.378;2022-10-16T00:56:49;14.10;99.90
53776;DHT22;44276;49.534;6.378;2022-10-16T00:59:20;14.00;99.90
53776;DHT22;44276;49.534;6.378;2022-10-16T01:01:53;14.10;99.90
53776;DHT22;44276;49.534;6.378;2022-10-16T01:04:22;14.10;99.90
53776;DHT22;44276;49.534;6.378;2022-10-16T01:06:58;14.00;99.90
53776;DHT22;44276;49.534;6.378;2022-10-16T01:09:41;14.00;99.90
53776;DHT22;44276;49.534;6.378;2022-10-16T01:12:27;14.10;99.90
53776;DHT22;44276;49.534;6.378;2022-10-16T01:15:10;14.10;99.90
53776;DHT22;44276;49.534;6.378;2022-10-16T01:17:45;14.10;99.90
53776;DHT22;44276;49.534;6.378;2022-10-16T01:20:26;14.10;99.90
53776;DHT22;44276;49.534;6.378;2022-10-16T01:23:05;14.10;99.90
53776;DHT22;44276;49.534;6.378;2022-10-16T01:25:59;14.10;99.90
53776;DHT22;44276;49.534;6.378;2022-10-16T01:28:47;14.00;99.90
53776;DHT22;44276;49.534;6.378;2022-10-16T01:31:24;14.10;99.90
53776;DHT22;44276;49.534;6.378;2022-10-16T01:34:00;14.10;99.90
53776;DHT22;44276;49.534;6.378;2022-10-16T01:36:37;14.10;99.90
53776;DHT22;44276;49.534;6.378;2022-10-16T01:39:10;14.10;99.90
53776;DHT22;44276;49.534;6.378;2022-10-16T01:41:43;14.10;99.90
53776;DHT22;44276;49.534;6.378;2022-10-16T01:44:18;14.10;99.90
53776;DHT22;44276;49.534;6.378;2022-10-16T01:46:52;14.10;99.90
53776;DHT22;44276;49.534;6.378;2022-10-16T01:49:24;14.10;99.90
53776;DHT22;44276;49.534;6.378;2022-10-16T01:51:56;14.10;99.90
53776;DHT22;44276;49.534;6.378;2022-10-16T01:54:29;14.20;99.90
53776;DHT22;44276;49.534;6.378;2022-10-16T01:57:01;14.20;99.90
53776;DHT22;44276;49.534;6.378;2022-10-16T01:59:38;14.20;99.90
53776;DHT22;44276;49.534;6.378;2022-10-16T02:02:10;14.20;99.90
53776;DHT22;44276;49.534;6.378;2022-10-16T02:04:43;14.30;99.90
53776;DHT22;44276;49.534;6.378;2022-10-16T02:07:15;14.20;99.90
53776;DHT22;44276;49.534;6.378;2022-10-16T02:09:44;14.20;99.90
53776;DHT22;44276;49.534;6.378;2022-10-16T02:12:18;14.20;99.90
53776;DHT22;44276;49.534;6.378;2022-10-16T02:14:53;14.20;99.90
53776;DHT22;44276;49.534;6.378;2022-10-16T02:17:22;14.20;99.90
53776;DHT22;44276;49.534;6.378;2022-10-16T02:19:52;14.20;99.90
53776;DHT22;44276;49.534;6.378;2022-10-16T02:22:27;14.20;99.90
53776;DHT22;44276;49.534;6.378;2022-10-16T02:25:02;14.30;99.90
53776;DHT22;44276;49.534;6.378;2022-10-16T02:27:38;14.30;99.90
53776;DHT22;44276;49.534;6.378;2022-10-16T02:30:18;14.30;99.90
53776;DHT22;44276;49.534;6.378;2022-10-16T02:32:50;14.30;99.90
53776;DHT22;44276;49.534;6.378;2022-10-16T02:35:21;14.30;99.90
53776;DHT22;44276;49.534;6.378;2022-10-16T02:37:52;14.30;99.90
53776;DHT22;44276;49.534;6.378;2022-10-16T02:40:23;14.30;99.90
53776;DHT22;44276;49.534;6.378;2022-10-16T02:42:53;14.20;99.90
53776;DHT22;44276;49.534;6.378;2022-10-16T02:45:24;14.20;99.90
53776;DHT22;44276;49.534;6.378;2022-10-16T02:47:52;14.20;99.90
53776;DHT22;44276;49.534;6.378;2022-10-16T02:50:20;14.20;99.90
53776;DHT22;44276;49.534;6.378;2022-10-16T02:52:48;14.20;99.90
53776;DHT22;44276;49.534;6.378;2022-10-16T02:55:17;14.20;99.90
53776;DHT22;44276;49.534;6.378;2022-10-16T02:57:45;14.20;99.90
53776;DHT22;44276;49.534;6.378;2022-10-16T03:00:15;14.10;99.90
53776;DHT22;44276;49.534;6.378;2022-10-16T03:02:46;14.10;99.90
53776;DHT22;44276;49.534;6.378;2022-10-16T03:05:14;14.10;99.90
53776;DHT22;44276;49.534;6.378;2022-10-16T03:07:43;14.10;99.90
53776;DHT22;44276;49.534;6.378;2022-10-16T03:10:11;14.10;99.90
53776;DHT22;44276;49.534;6.378;2022-10-16T03:12:39;14.10;99.90
53776;DHT22;44276;49.534;6.378;2022-10-16T03:15:08;14.10;99.90
53776;DHT22;44276;49.534;6.378;2022-10-16T03:17:36;14.00;99.90
53776;DHT22;44276;49.534;6.378;2022-10-16T03:20:07;14.00;99.90
53776;DHT22;44276;49.534;6.378;2022-10-16T03:22:35;14.00;99.90
53776;DHT22;44276;49.534;6.378;2022-10-16T03:25:04;14.00;99.90
53776;DHT22;44276;49.534;6.378;2022-10-16T03:27:33;14.00;99.90
53776;DHT22;44276;49.534;6.378;2022-10-16T03:30:01;14.00;99.90
53776;DHT22;44276;49.534;6.378;2022-10-16T03:32:29;14.00;99.90
53776;DHT22;44276;49.534;6.378;2022-10-16T03:34:58;14.00;99.90
53776;DHT22;44276;49.534;6.378;2022-10-16T03:37:27;13.90;99.90
53776;DHT22;44276;49.534;6.378;2022-10-16T03:39:55;13.90;99.90
53776;DHT22;44276;49.534;6.378;2022-10-16T03:42:23;13.90;99.90
53776;DHT22;44276;49.534;6.378;2022-10-16T03:44:51;13.90;99.90
53776;DHT22;44276;49.534;6.378;2022-10-16T03:47:19;13.90;99.90
53776;DHT22;44276;49.534;6.378;2022-10-16T03:49:50;13.90;99.90
53776;DHT22;44276;49.534;6.378;2022-10-16T03:52:18;14.00;99.90
53776;DHT22;44276;49.534;6.378;2022-10-16T03:54:47;14.00;99.90
53776;DHT22;44276;49.534;6.378;2022-10-16T03:57:16;14.00;99.90
53776;DHT22;44276;49.534;6.378;2022-10-16T03:59:44;14.00;99.90
53776;DHT22;44276;49.534;6.378;2022-10-16T04:02:12;14.00;99.90
53776;DHT22;44276;49.534;6.378;2022-10-16T04:04:40;14.00;99.90
53776;DHT22;44276;49.534;6.378;2022-10-16T04:07:08;14.00;99.90
53776;DHT22;44276;49.534;6.378;2022-10-16T04:09:36;13.90;99.90
53776;DHT22;44276;49.534;6.378;2022-10-16T04:12:06;13.90;99.90
53776;DHT22;44276;49.534;6.378;2022-10-16T04:14:34;13.90;99.90
53776;DHT22;44276;49.534;6.378;2022-10-16T04:17:02;13.90;99.90
53776;DHT22;44276;49.534;6.378;2022-10-16T04:19:30;13.90;99.90
53776;DHT22;44276;49.534;6.378;2022-10-16T04:21:58;13.90;99.90
53776;DHT22;44276;49.534;6.378;2022-10-16T04:24:28;13.90;99.90
53776;DHT22;44276;49.534;6.378;2022-10-16T04:26:57;13.90;99.90
53776;DHT22;44276;49.534;6.378;2022-10-16T04:29:26;13.90;99.90
53776;DHT22;44276;49.534;6.378;2022-10-16T04:31:55;13.90;99.90
53776;DHT22;44276;49.534;6.378;2022-10-16T04:34:23;13.90;99.90
53776;DHT22;44276;49.534;6.378;2022-10-16T04:36:51;13.90;99.90
53776;DHT22;44276;49.534;6.378;2022-10-16T04:39:19;13.90;99.90
53776;DHT22;44276;49.534;6.378;2022-10-16T04:41:48;13.90;99.90
53776;DHT22;44276;49.534;6.378;2022-10-16T04:44:16;13.90;99.90
53776;DHT22;44276;49.534;6.378;2022-10-16T04:46:45;13.80;99.90
53776;DHT22;44276;49.534;6.378;2022-10-16T04:49:13;13.80;99.90
53776;DHT22;44276;49.534;6.378;2022-10-16T04:51:41;13.80;99.90
53776;DHT22;44276;49.534;6.378;2022-10-16T04:54:09;13.80;99.90
53776;DHT22;44276;49.534;6.378;2022-10-16T04:56:38;13.80;99.90
53776;DHT22;44276;49.534;6.378;2022-10-16T04:59:14;13.80;99.90
53776;DHT22;44276;49.534;6.378;2022-10-16T05:01:42;13.80;99.90
53776;DHT22;44276;49.534;6.378;2022-10-16T05:04:13;13.80;99.90
53776;DHT22;44276;49.534;6.378;2022-10-16T05:06:42;13.80;99.90
53776;DHT22;44276;49.534;6.378;2022-10-16T05:09:10;13.80;99.90
53776;DHT22;44276;49.534;6.378;2022-10-16T05:11:39;13.80;99.90
53776;DHT22;44276;49.534;6.378;2022-10-16T05:14:07;13.80;99.90
53776;DHT22;44276;49.534;6.378;2022-10-16T05:16:39;13.80;99.90
53776;DHT22;44276;49.534;6.378;2022-10-16T05:19:08;13.80;99.90
53776;DHT22;44276;49.534;6.378;2022-10-16T05:21:55;13.80;99.90
53776;DHT22;44276;49.534;6.378;2022-10-16T05:24:24;13.80;99.90
53776;DHT22;44276;49.534;6.378;2022-10-16T05:26:52;13.80;99.90
53776;DHT22;44276;49.534;6.378;2022-10-16T05:29:20;13.70;99.90
53776;DHT22;44276;49.534;6.378;2022-10-16T05:31:50;13.80;99.90
53776;DHT22;44276;49.534;6.378;2022-10-16T05:34:19;13.70;99.90
53776;DHT22;44276;49.534;6.378;2022-10-16T05:36:48;13.80;99.90
53776;DHT22;44276;49.534;6.378;2022-10-16T05:39:18;13.80;99.90
53776;DHT22;44276;49.534;6.378;2022-10-16T05:41:46;13.80;99.90
53776;DHT22;44276;49.534;6.378;2022-10-16T05:44:14;13.80;99.90
53776;DHT22;44276;49.534;6.378;2022-10-16T05:46:42;13.80;99.90
53776;DHT22;44276;49.534;6.378;2022-10-16T05:49:10;13.80;99.90
53776;DHT22;44276;49.534;6.378;2022-10-16T05:51:38;13.80;99.90
53776;DHT22;44276;49.534;6.378;2022-10-16T05:54:08;13.80;99.90
53776;DHT22;44276;49.534;6.378;2022-10-16T05:56:37;13.80;99.90
53776;DHT22;44276;49.534;6.378;2022-10-16T05:59:06;13.80;99.90
53776;DHT22;44276;49.534;6.378;2022-10-16T06:01:34;13.80;99.90
53776;DHT22;44276;49.534;6.378;2022-10-16T06:04:02;13.80;99.90
53776;DHT22;44276;49.534;6.378;2022-10-16T06:06:31;13.80;99.90
53776;DHT22;44276;49.534;6.378;2022-10-16T06:08:59;13.80;99.90
53776;DHT22;44276;49.534;6.378;2022-10-16T06:11:28;13.90;99.90
53776;DHT22;44276;49.534;6.378;2022-10-16T06:14:00;13.90;99.90
53776;DHT22;44276;49.534;6.378;2022-10-16T06:16:33;13.90;99.90
53776;DHT22;44276;49.534;6.378;2022-10-16T06:19:03;13.90;99.90
53776;DHT22;44276;49.534;6.378;2022-10-16T06:21:33;13.90;99.90
53776;DHT22;44276;49.534;6.378;2022-10-16T06:24:01;13.90;99.90
53776;DHT22;44276;49.534;6.378;2022-10-16T06:26:30;14.00;99.90
53776;DHT22;44276;49.534;6.378;2022-10-16T06:29:01;14.00;99.90
53776;DHT22;44276;49.534;6.378;2022-10-16T06:31:29;14.00;99.90
53776;DHT22;44276;49.534;6.378;2022-10-16T06:34:00;14.00;99.90
53776;DHT22;44276;49.534;6.378;2022-10-16T06:36:31;14.00;99.90
53776;DHT22;44276;49.534;6.378;2022-10-16T06:38:59;14.00;99.90
53776;DHT22;44276;49.534;6.378;2022-10-16T06:41:27;14.00;99.90
53776;DHT22;44276;49.534;6.378;2022-10-16T06:43:55;14.10;99.90
53776;DHT22;44276;49.534;6.378;2022-10-16T06:46:25;14.10;99.90
53776;DHT22;44276;49.534;6.378;2022-10-16T06:48:54;14.20;99.90
53776;DHT22;44276;49.534;6.378;2022-10-16T06:51:23;14.20;99.90
53776;DHT22;44276;49.534;6.378;2022-10-16T06:53:54;14.20;99.90
53776;DHT22;44276;49.534;6.378;2022-10-16T06:56:31;14.30;99.90
53776;DHT22;44276;49.534;6.378;2022-10-16T06:59:00;14.30;99.90
53776;DHT22;44276;49.534;6.378;2022-10-16T07:01:31;14.30;99.90
53776;DHT22;44276;49.534;6.378;2022-10-16T07:04:01;14.40;99.90
53776;DHT22;44276;49.534;6.378;2022-10-16T07:06:31;14.40;99.90
53776;DHT22;44276;49.534;6.378;2022-10-16T07:09:03;14.50;99.90
53776;DHT22;44276;49.534;6.378;2022-10-16T07:11:33;14.50;99.90
53776;DHT22;44276;49.534;6.378;2022-10-16T07:14:02;14.50;99.90
53776;DHT22;44276;49.534;6.378;2022-10-16T07:16:32;14.60;99.90
53776;DHT22;44276;49.534;6.378;2022-10-16T07:19:02;14.60;99.90
53776;DHT22;44276;49.534;6.378;2022-10-16T07:21:32;14.70;99.90
53776;DHT22;44276;49.534;6.378;2022-10-16T07:24:04;14.80;99.90
53776;DHT22;44276;49.534;6.378;2022-10-16T07:26:35;15.00;99.90
53776;DHT22;44276;49.534;6.378;2022-10-16T07:29:07;15.30;99.90
53776;DHT22;44276;49.534;6.378;2022-10-16T07:31:41;15.50;99.90
53776;DHT22;44276;49.534;6.378;2022-10-16T07:34:11;15.80;99.90
53776;DHT22;44276;49.534;6.378;2022-10-16T07:36:40;15.80;99.90
53776;DHT22;44276;49.534;6.378;2022-10-16T07:39:13;15.80;99.90
53776;DHT22;44276;49.534;6.378;2022-10-16T07:41:41;15.50;99.90
53776;DHT22;44276;49.534;6.378;2022-10-16T07:44:09;15.40;99.90
53776;DHT22;44276;49.534;6.378;2022-10-16T07:46:37;15.50;99.90
53776;DHT22;44276;49.534;6.378;2022-10-16T07:49:06;15.60;99.90
53776;DHT22;44276;49.534;6.378;2022-10-16T07:51:36;15.60;99.90
53776;DHT22;44276;49.534;6.378;2022-10-16T07:54:04;15.60;99.90
53776;DHT22;44276;49.534;6.378;2022-10-16T07:56:32;15.60;99.90
53776;DHT22;44276;49.534;6.378;2022-10-16T07:59:04;15.60;99.90
53776;DHT22;44276;49.534;6.378;2022-10-16T08:01:32;15.60;99.90
53776;DHT22;44276;49.534;6.378;2022-10-16T08:04:00;15.50;99.90
53776;DHT22;44276;49.534;6.378;2022-10-16T08:06:35;15.50;99.90
53776;DHT22;44276;49.534;6.378;2022-10-16T08:09:05;15.40;99.90
53776;DHT22;44276;49.534;6.378;2022-10-16T08:11:33;15.30;99.90
53776;DHT22;44276;49.534;6.378;2022-10-16T08:14:02;15.30;99.90
53776;DHT22;44276;49.534;6.378;2022-10-16T08:16:30;15.30;99.90
53776;DHT22;44276;49.534;6.378;2022-10-16T08:18:58;15.40;99.90
53776;DHT22;44276;49.534;6.378;2022-10-16T08:21:26;15.50;99.90
53776;DHT22;44276;49.534;6.378;2022-10-16T08:23:56;15.60;99.90
53776;DHT22;44276;49.534;6.378;2022-10-16T08:26:26;15.70;99.90
53776;DHT22;44276;49.534;6.378;2022-10-16T08:28:55;15.60;99.90
53776;DHT22;44276;49.534;6.378;2022-10-16T08:31:24;15.60;99.90
53776;DHT22;44276;49.534;6.378;2022-10-16T08:33:54;15.60;99.90
53776;DHT22;44276;49.534;6.378;2022-10-16T08:36:22;15.70;99.90
53776;DHT22;44276;49.534;6.378;2022-10-16T08:38:50;15.70;99.90
53776;DHT22;44276;49.534;6.378;2022-10-16T08:41:32;15.80;99.90
53776;DHT22;44276;49.534;6.378;2022-10-16T08:44:57;15.80;99.90
53776;DHT22;44276;49.534;6.378;2022-10-16T08:47:45;15.80;99.90
53776;DHT22;44276;49.534;6.378;2022-10-16T08:50:24;15.70;99.90
53776;DHT22;44276;49.534;6.378;2022-10-16T08:52:55;15.80;99.90
53776;DHT22;44276;49.534;6.378;2022-10-16T08:55:34;15.70;99.90
53776;DHT22;44276;49.534;6.378;2022-10-16T08:58:13;15.90;99.90
53776;DHT22;44276;49.534;6.378;2022-10-16T09:00:44;15.90;99.90
53776;DHT22;44276;49.534;6.378;2022-10-16T09:03:24;16.20;99.90
53776;DHT22;44276;49.534;6.378;2022-10-16T09:06:10;16.50;99.90
53776;DHT22;44276;49.534;6.378;2022-10-16T09:09:06;16.50;99.90
53776;DHT22;44276;49.534;6.378;2022-10-16T09:11:55;16.70;99.90
53776;DHT22;44276;49.534;6.378;2022-10-16T09:17:44;17.00;99.90
53776;DHT22;44276;49.534;6.378;2022-10-16T09:20:34;17.40;99.90
53776;DHT22;44276;49.534;6.378;2022-10-16T09:23:15;17.90;99.90
53776;DHT22;44276;49.534;6.378;2022-10-16T09:25:47;18.50;99.90
53776;DHT22;44276;49.534;6.378;2022-10-16T09:28:18;18.80;99.90
53776;DHT22;44276;49.534;6.378;2022-10-16T09:30:48;18.90;99.90
53776;DHT22;44276;49.534;6.378;2022-10-16T09:33:20;19.00;99.90
53776;DHT22;44276;49.534;6.378;2022-10-16T09:35:54;19.10;99.90
53776;DHT22;44276;49.534;6.378;2022-10-16T09:38:30;19.00;99.90
53776;DHT22;44276;49.534;6.378;2022-10-16T09:41:01;18.50;99.90
53776;DHT22;44276;49.534;6.378;2022-10-16T09:43:35;18.10;99.90
53776;DHT22;44276;49.534;6.378;2022-10-16T09:46:29;17.80;99.90
53776;DHT22;44276;49.534;6.378;2022-10-16T09:49:04;17.70;99.90
53776;DHT22;44276;49.534;6.378;2022-10-16T09:51:46;17.80;99.90
53776;DHT22;44276;49.534;6.378;2022-10-16T09:54:17;18.00;99.90
53776;DHT22;44276;49.534;6.378;2022-10-16T09:56:46;17.80;99.90
53776;DHT22;44276;49.534;6.378;2022-10-16T09:59:20;17.80;99.90
53776;DHT22;44276;49.534;6.378;2022-10-16T10:01:54;18.10;99.90
53776;DHT22;44276;49.534;6.378;2022-10-16T10:04:25;18.70;99.90
53776;DHT22;44276;49.534;6.378;2022-10-16T10:07:17;19.10;99.90
53776;DHT22;44276;49.534;6.378;2022-10-16T10:09:49;19.20;94.90
53776;DHT22;44276;49.534;6.378;2022-10-16T10:12:20;19.10;96.90
53776;DHT22;44276;49.534;6.378;2022-10-16T10:14:54;19.20;94.30
53776;DHT22;44276;49.534;6.378;2022-10-16T10:17:29;19.40;99.90
53776;DHT22;44276;49.534;6.378;2022-10-16T10:20:00;19.70;99.20
53776;DHT22;44276;49.534;6.378;2022-10-16T10:22:45;19.70;97.40
53776;DHT22;44276;49.534;6.378;2022-10-16T10:25:39;19.90;90.70
53776;DHT22;44276;49.534;6.378;2022-10-16T10:28:40;20.10;94.90
53776;DHT22;44276;49.534;6.378;2022-10-16T10:31:22;20.20;90.40
53776;DHT22;44276;49.534;6.378;2022-10-16T10:34:04;20.10;94.10
53776;DHT22;44276;49.534;6.378;2022-10-16T10:36:52;20.00;89.70
53776;DHT22;44276;49.534;6.378;2022-10-16T10:39:34;19.90;93.10
53776;DHT22;44276;49.534;6.378;2022-10-16T10:42:22;19.60;96.10
53776;DHT22;44276;49.534;6.378;2022-10-16T10:45:15;19.40;94.80
53776;DHT22;44276;49.534;6.378;2022-10-16T10:47:54;19.40;99.90
53776;DHT22;44276;49.534;6.378;2022-10-16T10:50:51;19.30;95.30
53776;DHT22;44276;49.534;6.378;2022-10-16T10:53:32;19.30;98.50
53776;DHT22;44276;49.534;6.378;2022-10-16T10:56:16;19.40;99.90
53776;DHT22;44276;49.534;6.378;2022-10-16T10:59:12;19.60;93.50
53776;DHT22;44276;49.534;6.378;2022-10-16T11:01:59;19.70;91.60
53776;DHT22;44276;49.534;6.378;2022-10-16T11:05:03;19.70;90.20
53776;DHT22;44276;49.534;6.378;2022-10-16T11:07:51;19.80;81.60
53776;DHT22;44276;49.534;6.378;2022-10-16T11:10:25;19.80;89.50
53776;DHT22;44276;49.534;6.378;2022-10-16T11:12:59;19.70;90.90
53776;DHT22;44276;49.534;6.378;2022-10-16T11:15:40;19.50;93.30
53776;DHT22;44276;49.534;6.378;2022-10-16T11:18:15;19.30;93.20
53776;DHT22;44276;49.534;6.378;2022-10-16T11:20:50;19.20;94.80
53776;DHT22;44276;49.534;6.378;2022-10-16T11:23:26;19.30;95.70
53776;DHT22;44276;49.534;6.378;2022-10-16T11:26:02;19.30;93.20
53776;DHT22;44276;49.534;6.378;2022-10-16T11:28:39;19.40;91.90
53776;DHT22;44276;49.534;6.378;2022-10-16T11:31:42;19.70;90.10
53776;DHT22;44276;49.534;6.378;2022-10-16T11:34:22;20.00;84.70
53776;DHT22;44276;49.534;6.378;2022-10-16T11:36:57;20.40;79.60
53776;DHT22;44276;49.534;6.378;2022-10-16T11:39:32;20.70;75.70
53776;DHT22;44276;49.534;6.378;2022-10-16T11:42:04;20.50;71.00
53776;DHT22;44276;49.534;6.378;2022-10-16T11:44:50;20.70;73.70
53776;DHT22;44276;49.534;6.378;2022-10-16T11:47:30;20.60;80.50
53776;DHT22;44276;49.534;6.378;2022-10-16T11:50:26;20.60;76.70
53776;DHT22;44276;49.534;6.378;2022-10-16T11:53:03;20.40;79.90
53776;DHT22;44276;49.534;6.378;2022-10-16T11:55:44;20.10;82.00
53776;DHT22;44276;49.534;6.378;2022-10-16T11:58:22;19.90;86.20
53776;DHT22;44276;49.534;6.378;2022-10-16T12:01:00;19.80;90.60
53776;DHT22;44276;49.534;6.378;2022-10-16T12:03:42;19.60;89.20
53776;DHT22;44276;49.534;6.378;2022-10-16T12:06:25;19.40;94.90
53776;DHT22;44276;49.534;6.378;2022-10-16T12:09:02;19.30;93.20
53776;DHT22;44276;49.534;6.378;2022-10-16T12:11:35;19.10;96.60
53776;DHT22;44276;49.534;6.378;2022-10-16T12:14:17;19.20;97.10
53776;DHT22;44276;49.534;6.378;2022-10-16T12:16:52;19.30;97.90
53776;DHT22;44276;49.534;6.378;2022-10-16T12:19:24;19.40;96.20
53776;DHT22;44276;49.534;6.378;2022-10-16T12:21:56;19.30;96.70
53776;DHT22;44276;49.534;6.378;2022-10-16T12:24:33;19.50;99.90
53776;DHT22;44276;49.534;6.378;2022-10-16T12:27:21;19.80;94.80
53776;DHT22;44276;49.534;6.378;2022-10-16T12:29:56;20.20;91.80
53776;DHT22;44276;49.534;6.378;2022-10-16T12:32:32;20.70;84.60
53776;DHT22;44276;49.534;6.378;2022-10-16T12:35:20;20.70;74.90
53776;DHT22;44276;49.534;6.378;2022-10-16T12:37:50;20.60;75.00
53776;DHT22;44276;49.534;6.378;2022-10-16T12:40:31;20.60;72.80
53776;DHT22;44276;49.534;6.378;2022-10-16T12:43:24;20.70;72.20
53776;DHT22;44276;49.534;6.378;2022-10-16T12:46:04;20.60;73.60
53776;DHT22;44276;49.534;6.378;2022-10-16T12:48:48;20.70;73.00
53776;DHT22;44276;49.534;6.378;2022-10-16T12:51:35;20.80;76.60
53776;DHT22;44276;49.534;6.378;2022-10-16T12:54:12;21.00;69.60
53776;DHT22;44276;49.534;6.378;2022-10-16T12:56:50;20.80;71.00
53776;DHT22;44276;49.534;6.378;2022-10-16T12:59:37;20.70;69.00
53776;DHT22;44276;49.534;6.378;2022-10-16T13:05:56;21.00;69.60
53776;DHT22;44276;49.534;6.378;2022-10-16T13:08:50;21.30;67.00
53776;DHT22;44276;49.534;6.378;2022-10-16T13:11:41;21.20;66.00
53776;DHT22;44276;49.534;6.378;2022-10-16T13:14:51;21.30;67.30
53776;DHT22;44276;49.534;6.378;2022-10-16T13:17:38;21.30;66.10
53776;DHT22;44276;49.534;6.378;2022-10-16T13:20:18;21.20;67.30
53776;DHT22;44276;49.534;6.378;2022-10-16T13:22:58;21.40;67.40
53776;DHT22;44276;49.534;6.378;2022-10-16T13:25:45;21.30;63.60
53776;DHT22;44276;49.534;6.378;2022-10-16T13:28:30;20.90;66.30
53776;DHT22;44276;49.534;6.378;2022-10-16T13:31:02;20.80;72.00
53776;DHT22;44276;49.534;6.378;2022-10-16T13:33:33;20.70;70.70
53776;DHT22;44276;49.534;6.378;2022-10-16T13:36:05;20.60;75.60
53776;DHT22;44276;49.534;6.378;2022-10-16T13:38:35;20.50;82.90
53776;DHT22;44276;49.534;6.378;2022-10-16T13:41:05;20.40;77.40
53776;DHT22;44276;49.534;6.378;2022-10-16T13:43:44;20.30;82.70
53776;DHT22;44276;49.534;6.378;2022-10-16T13:46:20;20.20;82.00
53776;DHT22;44276;49.534;6.378;2022-10-16T13:48:57;20.10;84.20
53776;DHT22;44276;49.534;6.378;2022-10-16T13:51:26;20.00;92.60
53776;DHT22;44276;49.534;6.378;2022-10-16T13:53:56;20.10;92.80
53776;DHT22;44276;49.534;6.378;2022-10-16T13:56:27;20.00;91.70
53776;DHT22;44276;49.534;6.378;2022-10-16T13:59:00;19.90;94.90
53776;DHT22;44276;49.534;6.378;2022-10-16T14:01:33;19.80;95.70
53776;DHT22;44276;49.534;6.378;2022-10-16T14:04:09;19.70;95.30
53776;DHT22;44276;49.534;6.378;2022-10-16T14:06:42;19.80;97.20
53776;DHT22;44276;49.534;6.378;2022-10-16T14:09:21;20.00;94.00
53776;DHT22;44276;49.534;6.378;2022-10-16T14:11:55;20.10;93.40
53776;DHT22;44276;49.534;6.378;2022-10-16T14:14:29;20.40;91.30
53776;DHT22;44276;49.534;6.378;2022-10-16T14:17:04;20.50;89.90
53776;DHT22;44276;49.534;6.378;2022-10-16T14:19:33;20.70;84.70
53776;DHT22;44276;49.534;6.378;2022-10-16T14:22:02;20.60;83.40
53776;DHT22;44276;49.534;6.378;2022-10-16T14:24:33;20.60;82.80
53776;DHT22;44276;49.534;6.378;2022-10-16T14:30:14;20.60;82.70
53776;DHT22;44276;49.534;6.378;2022-10-16T14:32:55;20.60;81.30
53776;DHT22;44276;49.534;6.378;2022-10-16T14:35:29;20.70;85.70
53776;DHT22;44276;49.534;6.378;2022-10-16T14:37:59;21.00;90.10
53776;DHT22;44276;49.534;6.378;2022-10-16T14:40:31;21.30;80.00
53776;DHT22;44276;49.534;6.378;2022-10-16T14:43:01;21.40;74.90
53776;DHT22;44276;49.534;6.378;2022-10-16T14:45:34;21.50;79.60
53776;DHT22;44276;49.534;6.378;2022-10-16T14:48:12;21.40;73.80
53776;DHT22;44276;49.534;6.378;2022-10-16T14:50:45;21.40;75.40
53776;DHT22;44276;49.534;6.378;2022-10-16T14:53:14;21.30;75.40
53776;DHT22;44276;49.534;6.378;2022-10-16T14:55:43;21.30;75.50
53776;DHT22;44276;49.534;6.378;2022-10-16T14:58:15;21.20;77.10
53776;DHT22;44276;49.534;6.378;2022-10-16T15:00:46;21.00;79.30
53776;DHT22;44276;49.534;6.378;2022-10-16T15:03:16;20.80;81.30
53776;DHT22;44276;49.534;6.378;2022-10-16T15:05:44;20.70;88.00
53776;DHT22;44276;49.534;6.378;2022-10-16T15:08:12;20.70;92.50
53776;DHT22;44276;49.534;6.378;2022-10-16T15:10:43;20.70;91.90
53776;DHT22;44276;49.534;6.378;2022-10-16T15:13:12;20.70;93.80
53776;DHT22;44276;49.534;6.378;2022-10-16T15:15:43;20.60;93.90
53776;DHT22;44276;49.534;6.378;2022-10-16T15:18:12;20.50;97.80
53776;DHT22;44276;49.534;6.378;2022-10-16T15:20:49;20.30;95.50
53776;DHT22;44276;49.534;6.378;2022-10-16T15:23:19;20.20;99.80
53776;DHT22;44276;49.534;6.378;2022-10-16T15:25:50;20.20;99.90
53776;DHT22;44276;49.534;6.378;2022-10-16T15:28:21;20.10;99.90
53776;DHT22;44276;49.534;6.378;2022-10-16T15:30:51;20.10;99.90
53776;DHT22;44276;49.534;6.378;2022-10-16T15:33:23;20.00;99.90
53776;DHT22;44276;49.534;6.378;2022-10-16T15:35:55;20.00;99.90
53776;DHT22;44276;49.534;6.378;2022-10-16T15:38:27;20.10;99.90
53776;DHT22;44276;49.534;6.378;2022-10-16T15:40:56;20.40;99.90
53776;DHT22;44276;49.534;6.378;2022-10-16T15:43:25;20.60;99.90
53776;DHT22;44276;49.534;6.378;2022-10-16T15:45:59;21.00;98.70
53776;DHT22;44276;49.534;6.378;2022-10-16T15:48:32;21.50;91.90
53776;DHT22;44276;49.534;6.378;2022-10-16T15:51:04;21.70;89.10
53776;DHT22;44276;49.534;6.378;2022-10-16T15:53:35;21.10;90.90
53776;DHT22;44276;49.534;6.378;2022-10-16T15:56:04;20.90;96.50
53776;DHT22;44276;49.534;6.378;2022-10-16T15:58:34;20.90;99.00
53776;DHT22;44276;49.534;6.378;2022-10-16T16:01:03;20.60;99.90
53776;DHT22;44276;49.534;6.378;2022-10-16T16:03:37;20.10;99.90
53776;DHT22;44276;49.534;6.378;2022-10-16T16:06:11;19.50;99.90
53776;DHT22;44276;49.534;6.378;2022-10-16T16:08:41;18.90;99.90
53776;DHT22;44276;49.534;6.378;2022-10-16T16:11:13;18.50;99.90
53776;DHT22;44276;49.534;6.378;2022-10-16T16:14:12;18.20;99.90
53776;DHT22;44276;49.534;6.378;2022-10-16T16:16:41;17.90;99.90
53776;DHT22;44276;49.534;6.378;2022-10-16T16:19:10;17.60;99.90
53776;DHT22;44276;49.534;6.378;2022-10-16T16:21:40;17.40;99.90